Time;durP1;ratioP1;P1;durP2;ratioP2;P2;SDS_P1;SDS_P2;PMS_P1;PMS_P2;Temp;Humidity;BMP_temperature;BMP_pressure;BME280_temperature;BME280_humidity;BME280_pressure;Samples;Min_cycle;Max_cycle;Signal;HPM_P1;HPM_P2
2022/03/10 00:00:25;;;;;;;20.45;14.70;;;;;;;;;;6210897;23;20020;-89
2022/03/10 00:03:03;;;;;;;18.30;13.93;;;;;;;;;;6240774;23;20503;-88
2022/03/10 00:05:35;;;;;;;22.63;15.05;;;;;;;;;;6212468;23;20016;-85
2022/03/10 00:08:19;;;;;;;21.58;13.98;;;;;;;;;;6187776;23;20103;-87
2022/03/10 00:10:48;;;;;;;21.85;15.52;;;;;;;;;;6237419;23;20023;-88
2022/03/10 00:13:16;;;;;;;19.85;14.15;;;;;;;;;;6162404;23;20016;-87
2022/03/10 00:15:43;;;;;;;18.33;13.68;;;;;;;;;;6237343;23;20419;-88
2022/03/10 00:18:09;;;;;;;21.63;14.00;;;;;;;;;;6212082;23;20506;-89
2022/03/10 00:20:35;;;;;;;21.65;14.98;;;;;;;;;;6161434;23;20027;-86
2022/03/10 00:23:01;;;;;;;22.20;14.55;;;;;;;;;;6237100;23;20020;-87
2022/03/10 00:25:33;;;;;;;20.52;15.07;;;;;;;;;;6210863;23;20024;-89
2022/03/10 00:28:08;;;;;;;19.65;14.30;;;;;;;;;;6240621;23;20016;-84
2022/03/10 00:30:47;;;;;;;23.80;15.48;;;;;;;;;;6186164;23;20075;-84
2022/03/10 00:33:15;;;;;;;18.73;14.40;;;;;;;;;;6213014;23;20028;-86
2022/03/10 00:35:51;;;;;;;23.45;15.32;;;;;;;;;;6162149;23;20031;-84
2022/03/10 00:38:23;;;;;;;21.25;15.05;;;;;;;;;;6239055;23;20020;-84
2022/03/10 00:40:59;;;;;;;19.35;14.77;;;;;;;;;;6237815;23;20020;-88
2022/03/10 00:43:31;;;;;;;20.92;16.40;;;;;;;;;;6211565;23;20023;-83
2022/03/10 00:46:03;;;;;;;24.20;16.00;;;;;;;;;;6210915;23;20020;-85
2022/03/10 00:48:29;;;;;;;22.45;16.02;;;;;;;;;;6237576;23;20073;-87
2022/03/10 00:50:55;;;;;;;20.48;15.80;;;;;;;;;;6237219;23;20086;-83
2022/03/10 00:53:21;;;;;;;19.77;15.55;;;;;;;;;;6184816;23;20039;-85
2022/03/10 00:55:47;;;;;;;21.70;15.57;;;;;;;;;;6235283;23;20067;-86
2022/03/10 00:58:13;;;;;;;20.10;14.45;;;;;;;;;;6235482;23;20020;-87
2022/03/10 01:00:40;;;;;;;19.38;14.30;;;;;;;;;;6208747;23;20035;-88
2022/03/10 01:03:06;;;;;;;18.17;13.60;;;;;;;;;;6233430;23;20333;-88
2022/03/10 01:05:32;;;;;;;24.05;15.70;;;;;;;;;;6237342;23;20345;-88
2022/03/10 01:07:59;;;;;;;20.30;14.55;;;;;;;;;;6236829;23;20349;-89
2022/03/10 01:10:25;;;;;;;21.42;14.27;;;;;;;;;;6236856;23;20087;-87
2022/03/10 01:12:52;;;;;;;20.35;15.07;;;;;;;;;;6207619;23;20074;-87
2022/03/10 01:15:20;;;;;;;23.83;16.00;;;;;;;;;;6235542;23;20020;-82
2022/03/10 01:17:46;;;;;;;22.85;15.88;;;;;;;;;;6208591;23;20471;-91
2022/03/10 01:27:27;;;;;;;23.30;16.25;;;;;;;;;;6208159;23;20027;-90
2022/03/10 01:29:56;;;;;;;23.13;16.17;;;;;;;;;;6205121;23;20026;-88
2022/03/10 01:32:40;;;;;;;23.08;15.85;;;;;;;;;;6204146;23;20020;-89
2022/03/10 01:35:07;;;;;;;24.20;15.20;;;;;;;;;;6207862;23;20024;-90
2022/03/10 01:37:37;;;;;;;24.17;15.43;;;;;;;;;;6156526;23;20025;-88
2022/03/10 01:40:04;;;;;;;23.48;15.70;;;;;;;;;;6195217;23;20016;-87
2022/03/10 01:42:30;;;;;;;21.65;15.40;;;;;;;;;;6215881;23;20017;-87
2022/03/10 01:44:57;;;;;;;27.02;15.38;;;;;;;;;;6212562;23;20052;-89
2022/03/10 01:47:23;;;;;;;23.50;14.93;;;;;;;;;;6221153;23;20068;-89
2022/03/10 01:49:49;;;;;;;23.58;14.55;;;;;;;;;;6175738;23;20021;-83
2022/03/10 01:52:16;;;;;;;21.30;14.52;;;;;;;;;;6148098;23;20039;-86
2022/03/10 01:54:42;;;;;;;18.77;13.70;;;;;;;;;;6186164;23;20022;-84
2022/03/10 01:57:10;;;;;;;17.75;12.60;;;;;;;;;;6155175;23;20013;-85
2022/03/10 01:59:37;;;;;;;24.30;13.38;;;;;;;;;;6203491;23;20028;-84
2022/03/10 02:02:03;;;;;;;20.20;12.90;;;;;;;;;;6206222;23;20025;-88
2022/03/10 02:04:29;;;;;;;17.75;12.75;;;;;;;;;;6203699;23;20098;-88
2022/03/10 02:06:55;;;;;;;19.00;13.20;;;;;;;;;;6206504;23;20080;-87
2022/03/10 02:12:08;;;;;;;20.25;13.48;;;;;;;;;;6179607;23;20147;-86
2022/03/10 02:17:21;;;;;;;27.80;13.38;;;;;;;;;;6182479;23;20120;-85
2022/03/10 02:19:56;;;;;;;19.38;12.52;;;;;;;;;;6179771;23;20017;-88
2022/03/10 02:22:23;;;;;;;18.33;13.10;;;;;;;;;;6203549;23;20029;-86
2022/03/10 02:24:50;;;;;;;19.13;13.15;;;;;;;;;;6206152;23;20013;-85
2022/03/10 02:27:23;;;;;;;18.58;12.98;;;;;;;;;;6153326;23;20024;-85
2022/03/10 02:29:50;;;;;;;19.33;13.07;;;;;;;;;;6207298;23;20024;-86
2022/03/10 02:32:17;;;;;;;19.90;13.43;;;;;;;;;;6207990;23;20088;-86
2022/03/10 02:34:43;;;;;;;23.20;13.40;;;;;;;;;;6185507;23;20078;-87
2022/03/10 02:37:11;;;;;;;21.58;13.88;;;;;;;;;;6184319;23;20024;-88
2022/03/10 02:39:38;;;;;;;18.50;13.23;;;;;;;;;;6184511;23;20024;-86
2022/03/10 02:42:04;;;;;;;17.98;12.50;;;;;;;;;;6205750;23;20024;-86
2022/03/10 02:44:30;;;;;;;22.33;13.82;;;;;;;;;;6178621;23;20020;-88
2022/03/10 02:46:57;;;;;;;18.70;13.02;;;;;;;;;;6179485;23;20021;-87
2022/03/10 02:49:23;;;;;;;22.73;13.93;;;;;;;;;;6155513;23;20017;-87
2022/03/10 02:51:55;;;;;;;22.40;13.98;;;;;;;;;;6157336;23;20357;-88
2022/03/10 02:54:21;;;;;;;22.35;12.35;;;;;;;;;;6153009;23;20024;-85
2022/03/10 02:56:48;;;;;;;22.73;13.80;;;;;;;;;;6181359;23;20016;-86
2022/03/10 02:59:14;;;;;;;22.75;13.07;;;;;;;;;;6180908;23;20017;-87
2022/03/10 03:01:40;;;;;;;21.08;13.02;;;;;;;;;;6157276;23;20118;-88
2022/03/10 03:04:06;;;;;;;21.38;12.98;;;;;;;;;;6180745;23;20054;-86
2022/03/10 03:06:33;;;;;;;19.10;12.35;;;;;;;;;;6206121;23;20025;-90
2022/03/10 03:08:59;;;;;;;23.60;13.68;;;;;;;;;;6207193;23;20017;-88
2022/03/10 03:11:25;;;;;;;19.73;12.57;;;;;;;;;;6128817;23;20556;-83
2022/03/10 03:13:51;;;;;;;18.58;12.68;;;;;;;;;;6181285;23;20461;-87
2022/03/10 03:16:17;;;;;;;19.08;12.75;;;;;;;;;;6203687;23;20040;-85
2022/03/10 03:18:43;;;;;;;18.90;12.93;;;;;;;;;;6207557;23;20027;-85
2022/03/10 03:21:21;;;;;;;18.63;13.45;;;;;;;;;;6206543;23;20017;-89
2022/03/10 03:23:48;;;;;;;22.20;13.30;;;;;;;;;;6207695;23;20031;-86
2022/03/10 03:26:14;;;;;;;17.85;11.93;;;;;;;;;;6206064;23;20399;-88
2022/03/10 03:28:40;;;;;;;18.92;12.95;;;;;;;;;;6207689;23;20051;-84
2022/03/10 03:31:07;;;;;;;20.67;13.73;;;;;;;;;;6179304;23;20070;-88
2022/03/10 03:33:34;;;;;;;23.95;14.70;;;;;;;;;;6131192;23;20090;-88
2022/03/10 03:36:00;;;;;;;18.42;14.70;;;;;;;;;;6182253;23;20028;-88
2022/03/10 03:38:26;;;;;;;29.02;15.23;;;;;;;;;;6177499;23;20519;-86
2022/03/10 03:40:52;;;;;;;25.90;16.10;;;;;;;;;;6207651;23;20691;-88
2022/03/10 03:43:18;;;;;;;26.88;15.85;;;;;;;;;;6205519;23;20445;-88
2022/03/10 03:45:44;;;;;;;24.45;16.00;;;;;;;;;;6156393;23;20722;-87
2022/03/10 03:48:10;;;;;;;21.77;15.10;;;;;;;;;;6156085;23;20013;-89
2022/03/10 03:50:36;;;;;;;23.83;15.77;;;;;;;;;;6180105;23;20020;-89
2022/03/10 03:53:02;;;;;;;26.45;15.57;;;;;;;;;;6205941;23;20518;-89
2022/03/10 03:55:28;;;;;;;24.13;15.57;;;;;;;;;;6155097;23;20021;-84
2022/03/10 03:57:54;;;;;;;22.20;14.95;;;;;;;;;;6131358;23;20021;-86
2022/03/10 04:00:26;;;;;;;23.65;15.98;;;;;;;;;;6154126;23;20385;-84
2022/03/10 04:02:53;;;;;;;24.80;15.13;;;;;;;;;;6175015;23;20013;-85
2022/03/10 04:05:19;;;;;;;23.55;15.88;;;;;;;;;;6149956;23;20024;-84
2022/03/10 04:07:46;;;;;;;21.00;14.73;;;;;;;;;;6190095;23;20457;-85
2022/03/10 04:10:12;;;;;;;22.02;15.18;;;;;;;;;;6207306;23;20020;-86
2022/03/10 04:12:38;;;;;;;22.77;15.30;;;;;;;;;;6155750;23;20025;-84
2022/03/10 04:15:05;;;;;;;20.20;14.57;;;;;;;;;;6205317;23;20518;-88
2022/03/10 04:17:31;;;;;;;22.33;14.75;;;;;;;;;;6179443;23;20020;-84
2022/03/10 04:20:08;;;;;;;21.02;14.25;;;;;;;;;;6180385;23;20028;-84
2022/03/10 04:22:35;;;;;;;27.67;14.18;;;;;;;;;;6204538;23;20098;-87
2022/03/10 04:25:01;;;;;;;21.77;14.80;;;;;;;;;;6208203;23;20020;-86
2022/03/10 04:27:27;;;;;;;26.88;14.15;;;;;;;;;;6148895;23;20017;-85
2022/03/10 04:29:53;;;;;;;24.67;14.82;;;;;;;;;;6176691;23;20017;-84
2022/03/10 04:32:19;;;;;;;22.77;14.77;;;;;;;;;;6173408;23;20071;-86
2022/03/10 04:34:45;;;;;;;24.63;14.57;;;;;;;;;;6176910;23;20036;-86
2022/03/10 04:37:23;;;;;;;19.77;13.38;;;;;;;;;;6173233;23;20024;-87
2022/03/10 04:39:49;;;;;;;24.27;15.27;;;;;;;;;;6174973;23;20025;-85
2022/03/10 04:42:15;;;;;;;21.85;14.48;;;;;;;;;;6176013;23;20071;-84
2022/03/10 04:44:41;;;;;;;23.48;15.90;;;;;;;;;;6175601;23;20028;-85
2022/03/10 04:47:08;;;;;;;24.60;14.43;;;;;;;;;;6175652;23;20013;-88
2022/03/10 04:49:37;;;;;;;21.58;13.65;;;;;;;;;;6172903;23;20397;-87
2022/03/10 04:55:44;;;;;;;17.65;13.10;;;;;;;;;;6174717;23;20020;-86
2022/03/10 04:58:11;;;;;;;23.63;14.52;;;;;;;;;;6175285;23;20025;-87
2022/03/10 05:00:46;;;;;;;20.52;13.25;;;;;;;;;;6175691;23;20056;-87
2022/03/10 05:03:13;;;;;;;19.85;13.05;;;;;;;;;;6175230;23;20017;-86
2022/03/10 05:05:39;;;;;;;25.52;14.18;;;;;;;;;;6124649;23;20021;-88
2022/03/10 05:08:05;;;;;;;23.77;14.20;;;;;;;;;;6174404;23;20079;-82
2022/03/10 05:10:40;;;;;;;23.42;13.55;;;;;;;;;;6154284;23;20035;-87
2022/03/10 05:13:09;;;;;;;26.20;13.27;;;;;;;;;;6180055;23;20021;-86
2022/03/10 05:15:45;;;;;;;25.65;13.98;;;;;;;;;;6184139;23;20104;-84
2022/03/10 05:18:11;;;;;;;19.05;14.18;;;;;;;;;;6173558;23;20021;-87
2022/03/10 05:20:40;;;;;;;19.73;14.05;;;;;;;;;;6173791;23;20075;-87
2022/03/10 05:23:06;;;;;;;22.17;14.50;;;;;;;;;;6175561;23;20469;-86
2022/03/10 05:25:34;;;;;;;21.10;13.23;;;;;;;;;;6176889;23;20031;-87
2022/03/10 05:28:13;;;;;;;20.10;12.98;;;;;;;;;;6150957;23;20021;-86
2022/03/10 05:30:40;;;;;;;22.25;13.93;;;;;;;;;;6179018;23;20028;-88
2022/03/10 05:33:06;;;;;;;21.55;14.25;;;;;;;;;;6176218;23;20063;-88
2022/03/10 05:35:32;;;;;;;19.52;13.40;;;;;;;;;;6179546;23;20016;-85
2022/03/10 05:38:04;;;;;;;23.17;14.23;;;;;;;;;;6203623;23;20067;-87
2022/03/10 05:40:43;;;;;;;22.80;13.98;;;;;;;;;;6211662;23;20020;-87
2022/03/10 05:43:28;;;;;;;19.38;13.90;;;;;;;;;;6202862;23;20031;-89
2022/03/10 05:46:06;;;;;;;20.67;13.50;;;;;;;;;;6153194;23;20348;-89
2022/03/10 05:48:32;;;;;;;20.10;13.60;;;;;;;;;;6179417;23;20396;-89
2022/03/10 05:50:58;;;;;;;21.10;13.55;;;;;;;;;;6154299;23;20020;-90
2022/03/10 05:53:25;;;;;;;17.95;13.27;;;;;;;;;;6179463;23;20528;-90
2022/03/10 05:55:53;;;;;;;23.35;13.20;;;;;;;;;;6092148;23;20025;-91
2022/03/10 05:58:29;;;;;;;;;;;;;;;;;;;;;
2022/03/10 06:07:48;;;;;;;20.58;13.77;;;;;;;;;;6210388;23;20027;-89
2022/03/10 06:10:26;;;;;;;24.05;13.70;;;;;;;;;;6210167;23;20047;-88
2022/03/10 06:12:58;;;;;;;22.02;14.00;;;;;;;;;;6213699;23;20505;-89
2022/03/10 06:18:01;;;;;;;20.77;13.27;;;;;;;;;;6246608;22;20020;-89
2022/03/10 06:20:30;;;;;;;19.92;13.27;;;;;;;;;;6226812;23;20048;-91
2022/03/10 06:23:17;;;;;;;19.38;13.05;;;;;;;;;;6218703;23;20012;-91
2022/03/10 06:28:18;;;;;;;20.65;13.93;;;;;;;;;;6240108;23;20024;-91
2022/03/10 06:30:45;;;;;;;24.38;13.75;;;;;;;;;;6213561;23;20020;-91
2022/03/10 06:37:01;;;;;;;21.48;13.95;;;;;;;;;;6241008;23;20064;-88
2022/03/10 06:39:28;;;;;;;20.93;13.70;;;;;;;;;;6239841;23;20318;-89
2022/03/10 06:42:13;;;;;;;19.20;12.82;;;;;;;;;;6213898;23;20024;-89
2022/03/10 06:44:39;;;;;;;18.05;12.98;;;;;;;;;;6239470;23;20038;-89
2022/03/10 06:47:05;;;;;;;24.20;13.40;;;;;;;;;;6239929;23;20034;-88
2022/03/10 06:49:35;;;;;;;25.10;14.63;;;;;;;;;;6241300;23;20031;-89
2022/03/10 06:52:01;;;;;;;28.60;14.57;;;;;;;;;;6251315;23;20015;-89
2022/03/10 06:54:27;;;;;;;24.58;13.60;;;;;;;;;;6214075;23;20340;-89
2022/03/10 06:57:28;;;;;;;20.35;13.88;;;;;;;;;;6213662;23;20110;-89
2022/03/10 06:59:57;;;;;;;21.38;13.50;;;;;;;;;;6241852;23;20469;-88
2022/03/10 07:02:29;;;;;;;24.08;14.05;;;;;;;;;;6242109;23;20024;-88
2022/03/10 07:04:59;;;;;;;18.77;13.77;;;;;;;;;;6214247;23;20028;-87
2022/03/10 07:07:25;;;;;;;21.77;14.60;;;;;;;;;;6213726;23;20062;-89
2022/03/10 07:10:35;;;;;;;28.75;15.50;;;;;;;;;;6211918;23;20020;-88
2022/03/10 07:13:29;;;;;;;24.75;15.98;;;;;;;;;;6237343;23;20024;-89
2022/03/10 07:15:58;;;;;;;25.17;14.93;;;;;;;;;;6236683;23;20035;-89
2022/03/10 07:18:24;;;;;;;25.33;14.73;;;;;;;;;;6214184;23;20507;-90
2022/03/10 07:20:50;;;;;;;25.00;15.65;;;;;;;;;;6235780;23;20106;-91
2022/03/10 07:23:16;;;;;;;26.42;15.57;;;;;;;;;;6238927;23;20452;-91
2022/03/10 07:25:43;;;;;;;25.15;16.63;;;;;;;;;;6209547;23;20020;-89
2022/03/10 07:28:09;;;;;;;24.48;16.13;;;;;;;;;;6212658;23;20024;-91
2022/03/10 07:30:35;;;;;;;29.38;16.10;;;;;;;;;;6160807;23;20012;-91
2022/03/10 07:33:01;;;;;;;27.92;16.05;;;;;;;;;;6212169;23;20028;-96
2022/03/10 07:44:13;;;;;;;23.33;14.68;;;;;;;;;;6195456;23;20024;-93
2022/03/10 07:49:17;;;;;;;25.25;15.88;;;;;;;;;;6225301;22;20079;-92
2022/03/10 07:51:44;;;;;;;21.38;14.63;;;;;;;;;;6208826;23;20020;-92
2022/03/10 07:54:10;;;;;;;28.75;15.70;;;;;;;;;;6238291;23;20491;-91
2022/03/10 07:57:04;;;;;;;27.33;17.40;;;5.10;99.90;;;;;;6208090;23;20352;-92
2022/03/10 07:59:30;;;;;;;25.50;15.80;;;;;;;;;;6238181;23;20031;-92
2022/03/10 08:02:09;;;;;;;23.25;14.70;;;;;;;;;;6207949;23;20076;-91
2022/03/10 08:04:44;;;;;;;18.95;13.70;;;;;;;;;;6212716;23;20020;-91
2022/03/10 08:10:08;;;;;;;23.33;14.00;;;;;;;;;;6239175;23;20020;-92
2022/03/10 08:12:34;;;;;;;20.75;14.88;;;;;;;;;;6186181;23;20024;-92
2022/03/10 08:21:52;;;;;;;24.02;14.43;;;;;;;;;;6232129;22;20078;-92
2022/03/10 08:40:17;;;;;;;16.90;13.32;;;;;;;;;;6276457;22;20042;-93
2022/03/10 08:42:52;;;;;;;26.70;14.32;;;;;;;;;;6253480;22;20026;-92
2022/03/10 08:51:51;;;;;;;25.65;14.43;;;;;;;;;;6235173;23;20058;-91
2022/03/10 09:17:07;;;;;;;23.90;17.33;;;;;;;;;;6217311;22;20735;-91
2022/03/10 09:26:26;;;;;;;26.40;18.25;;;;;;;;;;6231525;22;20155;-93
2022/03/10 09:47:50;;;;;;;20.92;15.15;;;;;;;;;;6237633;22;20024;-91
2022/03/10 09:50:17;;;;;;;20.45;15.18;;;;;;;;;;6162591;23;20051;-92
2022/03/10 09:52:50;;;;;;;27.20;16.50;;;;;;;;;;6211959;23;20424;-92
2022/03/10 09:55:25;;;;;;;26.20;15.98;;;;;;;;;;6237185;23;20036;-92
2022/03/10 10:06:57;;;;;;;19.00;13.07;;;;;;;;;;6241085;22;20047;-93
2022/03/10 10:12:05;;;;;;;20.70;12.20;;;;;;;;;;6212902;23;20440;-94
2022/03/10 10:17:16;;;;;;;16.35;11.93;;;;;;;;;;6238852;22;20052;-92
2022/03/10 10:20:10;;;;;;;17.60;12.95;;;;;;;;;;6237535;23;20032;-92
2022/03/10 10:22:38;;;;;;;15.50;12.07;;;;;;;;;;6162608;23;20349;-92
2022/03/10 10:25:13;;;;;;;19.33;13.20;;;;;;;;;;6158313;23;20020;-92
2022/03/10 10:27:52;;;;;;;19.15;11.88;;;;;;;;;;6160882;23;20108;-93
2022/03/10 10:34:02;;;;;;;25.15;13.38;;;;;;;;;;6239209;23;20030;-93
2022/03/10 10:36:34;;;;;;;16.73;12.68;;;;;;;;;;6213003;23;20310;-93
2022/03/10 10:39:21;;;;;;;18.45;12.68;;;;;;;;;;6215626;23;20028;-92
2022/03/10 10:58:55;;;;;;;23.35;12.32;;;12.80;99.90;;;;;;6213173;23;20255;-93
2022/03/10 11:07:59;;;;;;;18.20;11.65;;;;;;;;;;6152994;23;20017;-93
2022/03/10 11:10:44;;;;;;;15.23;12.15;;;;;;;;;;6201393;22;20093;-92
2022/03/10 11:13:37;;;;;;;16.92;13.38;;;;;;;;;;6214666;23;20360;-93
2022/03/10 11:16:32;;;;;;;17.45;12.00;;;;;;;;;;6184225;23;20028;-94
2022/03/10 11:33:58;;;;;;;26.73;12.68;;;;;;;;;;6200862;23;20098;-93
2022/03/10 12:07:21;;;;;;;20.17;12.23;;;;;;;;;;6264549;22;20456;-95
2022/03/10 12:10:13;;;;;;;15.13;12.05;;;;;;;;;;6161815;22;20034;-92
2022/03/10 12:12:48;;;;;;;17.70;12.80;;;;;;;;;;6182952;22;20020;-94
2022/03/10 12:15:38;;;;;;;16.90;12.05;;;;;;;;;;6213515;23;20095;-94
2022/03/10 12:18:17;;;;;;;16.75;12.32;;;;;;;;;;6213321;23;20028;-94
2022/03/10 12:21:00;;;;;;;;;;;;;;;;;;;;;
2022/03/10 12:23:54;;;;;;;15.10;12.80;;;;;;;;;;6218519;22;20024;-94
2022/03/10 12:26:58;;;;;;;15.75;12.73;;;;;;;;;;6153677;23;20075;-95
2022/03/10 12:29:49;;;;;;;18.52;13.68;;;;;;;;;;6152014;23;20028;-93
2022/03/10 12:32:34;;;;;;;18.45;12.20;;;;;;;;;;6126304;23;20102;-94
2022/03/10 12:37:32;;;;;;;15.57;12.73;;;;;;;;;;6234012;22;20567;-93
2022/03/10 12:45:45;;;;;;;19.67;13.15;;;;;;;;;;6190063;23;20021;-94
2022/03/10 12:54:56;;;;;;;19.48;12.65;;;;;;;;;;6240921;22;20032;-95
2022/03/10 12:58:03;;;;;;;16.73;13.93;;;;;;;;;;6191836;23;20020;-94
2022/03/10 13:00:29;;;;;;;18.08;13.60;;;;;;;;;;6187935;23;20032;-94
2022/03/10 13:02:58;;;;;;;14.95;12.95;;;;;;;;;;6195908;23;20020;-94
2022/03/10 13:08:13;;;;;;;18.15;12.98;;;;;;;;;;6226776;22;20025;-94
2022/03/10 13:10:40;;;;;;;17.60;14.15;;;;;;;;;;6132435;23;20024;-94
2022/03/10 13:13:08;;;;;;;18.77;13.25;;;;;;;;;;6183789;23;20017;-93
2022/03/10 13:18:46;;;;;;;16.77;13.10;;;;;;;;;;6239899;22;20013;-94
2022/03/10 13:21:28;;;;;;;17.20;13.68;;;;;;;;;;6185592;23;20100;-94
2022/03/10 13:23:57;;;;;;;19.85;14.30;;;;;;;;;;6183531;23;20028;-94
2022/03/10 13:26:26;;;;;;;17.63;14.07;;;;;;;;;;6178313;23;20023;-93
2022/03/10 13:29:14;;;;;;;17.08;13.25;;;15.80;96.20;;;;;;6155855;23;20094;-94
2022/03/10 14:14:44;;;;;;;22.27;14.82;;;;;;;;;;6208167;23;20036;-90
2022/03/10 14:20:12;;;;;;;20.40;14.80;;;;;;;;;;6227875;22;20020;-91
2022/03/10 14:29:27;;;;;;;18.98;14.13;;;;;;;;;;6236294;23;20051;-91
2022/03/10 14:32:19;;;;;;;20.50;14.32;;;;;;;;;;6209263;23;20105;-93
2022/03/10 14:35:14;;;;;;;22.35;15.48;;;;;;;;;;6210229;23;20028;-92
2022/03/10 14:38:17;;;;;;;17.83;13.73;;;;;;;;;;6232825;23;20156;-91
2022/03/10 14:40:44;;;;;;;24.23;15.18;;;;;;;;;;6212229;23;20046;-93
2022/03/10 14:43:23;;;;;;;21.52;15.45;;;;;;;;;;6236053;23;20491;-91
2022/03/10 14:45:51;;;;;;;21.55;14.73;;;;;;;;;;6214382;23;20091;-93
2022/03/10 14:48:42;;;;;;;24.50;16.05;;;;;;;;;;6214754;23;20011;-92
2022/03/10 14:51:23;;;;;;;21.27;15.93;;;;;;;;;;6164681;23;20020;-92
2022/03/10 14:53:49;;;;;;;20.33;15.25;;;;;;;;;;6253061;23;20019;-88
2022/03/10 14:56:19;;;;;;;24.42;16.75;;;;;;;;;;6249277;23;20390;-89
2022/03/10 15:05:41;;;;;;;22.85;17.38;;;14.90;99.40;;;;;;6177252;23;20021;-91
2022/03/10 15:21:23;;;;;;;22.10;16.05;;;;;;;;;;6160968;23;20029;-89
2022/03/10 15:37:01;;;;;;;21.63;15.50;;;;;;;;;;6220445;22;20059;-91
2022/03/10 15:42:57;;;;;;;25.77;14.82;;;;;;;;;;6230912;22;20039;-92
2022/03/10 15:45:32;;;;;;;21.88;14.93;;;;;;;;;;6186615;23;20051;-94
2022/03/10 15:48:00;;;;;;;22.20;14.43;;;;;;;;;;6214368;23;20449;-93
2022/03/10 15:50:43;;;;;;;22.02;15.18;;;;;;;;;;6163514;23;20020;-93
2022/03/10 15:53:34;;;;;;;24.98;14.85;;;;;;;;;;6210807;23;20020;-92
2022/03/10 15:59:29;;;;;;;18.35;14.25;;;;;;;;;;6245780;22;20448;-93
2022/03/10 16:01:57;;;;;;;19.60;13.18;;;;;;;;;;6213589;23;20021;-93
2022/03/10 16:04:49;;;;;;;23.13;13.07;;;;;;;;;;6205709;23;20089;-92
2022/03/10 16:07:16;;;;;;;20.15;12.85;;;;;;;;;;6213301;23;20024;-93
2022/03/10 16:09:54;;;;;;;25.90;12.77;;;;;;;;;;6225856;23;20039;-95
2022/03/10 16:18:21;;;;;;;14.90;10.98;;;;;;;;;;6200459;23;20032;-93
2022/03/10 16:23:49;;;;;;;15.43;9.68;;;;;;;;;;6252887;23;20028;-92
2022/03/10 16:29:29;;;;;;;15.45;10.65;;;;;;;;;;6233072;22;20520;-92
2022/03/10 16:41:00;;;;;;;14.15;9.07;;;13.30;99.90;;;;;;6239873;22;19962;-91
2022/03/10 16:43:29;;;;;;;13.25;8.70;;;;;;;;;;6224923;22;20016;-92
2022/03/10 16:49:22;;;;;;;9.88;8.10;;;;;;;;;;6211119;22;20353;-91
2022/03/10 16:54:24;;;;;;;19.50;9.35;;;;;;;;;;6252617;22;20110;-92
2022/03/10 16:56:56;;;;;;;12.63;9.27;;;;;;;;;;6217486;22;20459;-92
2022/03/10 17:02:01;;;;;;;13.98;8.85;;;;;;;;;;6250996;22;20031;-92
2022/03/10 17:04:31;;;;;;;12.38;9.15;;;;;;;;;;6218159;22;20027;-92
2022/03/10 17:06:58;;;;;;;12.35;9.60;;;;;;;;;;6219111;22;20065;-92
2022/03/10 17:09:24;;;;;;;12.45;9.55;;;;;;;;;;6217071;22;20483;-93
2022/03/10 17:11:56;;;;;;;11.98;9.55;;;;;;;;;;6217340;22;20037;-91
2022/03/10 17:20:21;;;;;;;13.68;8.98;;;;;;;;;;6254798;22;20340;-91
2022/03/10 17:22:48;;;;;;;14.68;10.00;;;;;;;;;;6215543;22;20113;-92
2022/03/10 17:25:40;;;;;;;13.77;9.85;;;;;;;;;;6234010;23;20016;-92
2022/03/10 17:50:44;;;;;;;14.80;9.90;;;;;;;;;;6177770;23;20031;-93
2022/03/10 17:56:17;;;;;;;14.80;10.48;;;;;;;;;;6111397;23;20141;-91
2022/03/10 17:58:44;;;;;;;14.32;10.65;;;;;;;;;;6145926;22;20039;-94
2022/03/10 18:28:29;;;;;;;16.48;11.40;;;;;;;;;;6248817;22;20062;-91
2022/03/10 18:30:59;;;;;;;15.18;11.57;;;;;;;;;;6243641;22;20570;-92
2022/03/10 18:33:50;;;;;;;14.75;10.65;;;;;;;;;;6163720;23;20045;-94
2022/03/10 18:38:55;;;;;;;15.30;10.77;;;;;;;;;;6223371;22;20033;-89
2022/03/10 19:04:07;;;;;;;13.13;10.43;;;;;;;;;;6208959;23;20086;-94
2022/03/10 19:07:17;;;;;;;14.30;10.52;;;;;;;;;;6186849;23;20025;-91
2022/03/10 19:30:16;;;;;;;16.25;11.15;;;;;;;;;;6238051;22;20040;-92
2022/03/10 19:36:56;;;;;;;16.30;11.02;;;;;;;;;;6207423;23;20205;-95
2022/03/10 19:43:51;;;;;;;17.75;11.05;;;;;;;;;;6225532;23;20039;-91
2022/03/10 19:55:58;;;;;;;17.55;12.02;;;;;;;;;;6231833;23;20353;-92
2022/03/10 20:01:49;;;;;;;14.90;12.23;;;;;;;;;;6239148;23;20100;-88
2022/03/10 20:07:17;;;;;;;16.63;12.23;;;;;;;;;;6228824;22;20091;-92
2022/03/10 20:16:38;;;;;;;15.13;11.55;;;;;;;;;;6232258;22;20063;-92
2022/03/10 20:19:08;;;;;;;18.23;11.57;;;;;;;;;;6176942;23;20040;-92
2022/03/10 20:49:04;;;;;;;19.25;11.38;;;;;;;;;;6237951;22;20050;-93
2022/03/10 21:42:01;;;;;;;12.93;9.13;;;;;;;;;;6254869;22;20050;-92
2022/03/10 21:53:48;;;;;;;11.75;8.55;;;;;;;;;;6251798;22;20348;-91
2022/03/10 22:10:29;;;;;;;;;;;;;;;;;;;;;
2022/03/10 22:29:43;;;;;;;12.80;8.52;;;;;;;;;;6177080;23;20028;-93
2022/03/10 23:15:24;;;;;;;13.38;8.70;;;;;;;;;;6250176;23;20023;-89
2022/03/10 23:35:03;;;;;;;16.55;8.50;;;;;;;;;;6238287;23;20328;-94
2022/03/10 23:55:48;;;;;;;12.20;9.73;;;;;;;;;;6195760;23;20081;-93
2022/03/10 23:58:15;;;;;;;17.30;9.30;;;;;;;;;;6222347;23;20023;-94
